• Join FlightAware (Why Join?)
  • Login
  • US Flag 
04:40PM EDT


 

Airport Tracker/Info


-or-


 

Live Flight TrackerFlight Track Log ✈ SKW6446 ✈ 02-May-2013 ✈ KSMX - KLAX

Flight Track Log - Related Links

Times and Time Zones

All times are in EDT time to prevent confusion due to time zone crossing. See the SKW6446 flight status page for this flight to view local times or setup timezone preferences in your user account.

Time Position Orientation Groundspeed Altitude Reporting Facility
EDT Latitude Longitude Course Direction KTS MPH feet Rate Location/Type
09:26PM 34.9381 -120.4539 North 173 199 3,200  Level Los Angeles Center
09:27PM 34.9103 -120.4006 122° Southeast 193 222 5,400 1,800 Climbing Los Angeles Center
09:28PM 34.7850 -120.2055 112° Southeast  Level Estimated
09:28PM 34.8764 -120.3497 129° Southeast 192 221 6,900  Level Los Angeles Center
09:29PM 34.7466 -120.1215 132° Southeast  Level Estimated
09:29PM 34.8425 -120.2942 127° Southeast 199 229 8,500  Level Los Angeles Center
09:30PM 34.7081 -120.0376 116° Southeast  Level Estimated
09:30PM 34.8081 -120.2372 126° Southeast 206 237 10,200  Level Los Angeles Center
09:31PM 34.7664 -120.1689 127° Southeast 209 241 12,000 1,500 Climbing Los Angeles Center
09:32PM 34.7294 -120.1111 128° Southeast 213 245 13,300 1,020 Climbing Los Angeles Center
09:33PM 34.7019 -120.0711 130° Southeast 218 251 14,100 780 Climbing Los Angeles Center
09:34PM 34.6458 -119.9872 129° Southeast 229 264 15,000 420 Climbing Los Angeles Center
09:35PM 34.6003 -119.9128 127° Southeast 269 310 15,000  Level Los Angeles Center
09:36PM 34.5561 -119.8481 130° Southeast 273 314 15,000  Level Los Angeles Center
09:37PM 34.4983 -119.7608 129° Southeast 276 318 15,000  Level Los Angeles Center
09:38PM 34.4553 -119.6839 124° Southeast 278 320 15,000  Level Los Angeles Center
09:39PM 34.4147 -119.6056 122° Southeast 277 319 15,000  Level Los Angeles Center
09:40PM 34.3775 -119.5247 119° Southeast 276 318 15,000 -540 Level Los Angeles Center
09:41PM 34.3553 -119.4297 106° East 291 335 13,900 -1,200 Descending Los Angeles Center
09:42PM 34.3328 -119.3267 105° East 318 366 12,600 -1,200 Descending Los Angeles Center
09:43PM 34.3064 -119.2289 108° East 309 356 11,500 -840 Descending Los Angeles Center
09:44PM 34.2772 -119.1144 107° East 296 341 11,000 -300 Descending Los Angeles Center
09:45PM 34.2456 -119.0308 115° Southeast 278 320 11,000 -120 Level Los Angeles Center
09:46PM 34.2008 -118.9531 125° Southeast 282 325 10,800 -540 Descending Los Angeles Center
09:47PM 34.1500 -118.8764 129° Southeast 291 335 10,000 -420 Descending Los Angeles Center
09:48PM 34.1086 -118.7989 123° Southeast 275 316 10,000  Level Los Angeles Center
09:49PM 34.0733 -118.7331 123° Southeast 268 308 10,000 -300 Level Los Angeles Center
09:50PM 34.0500 -118.6186 104° East 269 310 9,500 -900 Descending Los Angeles Center
09:52PM 34.0264 -118.5264 107° East 287 330 8,200 -1,080 Descending Los Angeles Center
09:53PM 34.0142 -118.4367 99° East 271 312 7,300 -1,260 Descending Los Angeles Center
09:54PM 34.0250 -118.3436 82° East 275 316 5,600 -1,620 Descending Los Angeles Center
09:55PM 34.0339 -118.2494 83° East 281 323 4,000 -1,440 Descending Los Angeles Center
09:56PM 33.9864 -118.2297 161° South 240 276 2,700 -1,320 Descending Los Angeles Center